createdAt,value
2018-02-23T00:00:22.332Z,100564.63
2018-02-23T00:02:49.714Z,100565.76
2018-02-23T00:05:17.108Z,100568.60
2018-02-23T00:07:47.302Z,100569.22
2018-02-23T00:10:14.706Z,100563.14
2018-02-23T00:12:42.087Z,100563.44
2018-02-23T00:15:09.474Z,100562.93
2018-02-23T00:17:36.878Z,100558.97
2018-02-23T00:20:04.274Z,100570.09
2018-02-23T00:22:41.615Z,100564.00
2018-02-23T00:25:09.147Z,100564.12
2018-02-23T00:27:36.533Z,100565.16
2018-02-23T00:30:03.893Z,100562.69
2018-02-23T00:32:31.281Z,100567.03
2018-02-23T00:34:58.711Z,100570.81
2018-02-23T00:37:26.079Z,100568.08
2018-02-23T00:39:53.461Z,100568.77
2018-02-23T00:42:21.086Z,100575.22
2018-02-23T00:44:48.466Z,100570.55
2018-02-23T00:47:16.030Z,100565.58
2018-02-23T00:49:43.398Z,100569.52
2018-02-23T00:52:10.832Z,100564.11
2018-02-23T00:54:38.261Z,100567.94
2018-02-23T00:57:05.703Z,100558.56
2018-02-23T00:59:33.062Z,100562.26
2018-02-23T01:02:00.751Z,100560.86
2018-02-23T01:04:28.177Z,100556.64
2018-02-23T01:06:55.539Z,100556.77
2018-02-23T01:09:23.002Z,100556.75
2018-02-23T01:11:50.385Z,100556.83
2018-02-23T01:14:18.465Z,100551.38
2018-02-23T01:16:46.136Z,100550.92
2018-02-23T01:19:13.541Z,100552.30
2018-02-23T01:21:40.914Z,100555.39
2018-02-23T01:24:08.651Z,100547.21
2018-02-23T01:26:36.060Z,100544.44
2018-02-23T01:29:03.501Z,100548.03
2018-02-23T01:31:30.981Z,100542.36
2018-02-23T01:33:58.383Z,100551.62
2018-02-23T01:36:25.758Z,100550.09
2018-02-23T01:38:53.164Z,100542.00
2018-02-23T01:41:20.725Z,100536.08
2018-02-23T01:43:48.119Z,100538.98
2018-02-23T01:46:16.305Z,100535.19
2018-02-23T01:48:43.699Z,100542.69
2018-02-23T01:51:11.440Z,100537.04
2018-02-23T01:53:38.981Z,100528.59
2018-02-23T01:56:06.668Z,100533.45
2018-02-23T01:58:34.284Z,100521.17
2018-02-23T02:01:01.727Z,100525.51
2018-02-23T02:03:29.106Z,100529.63
2018-02-23T02:05:56.501Z,100529.09
2018-02-23T02:08:23.882Z,100527.50
2018-02-23T02:10:51.316Z,100527.20
2018-02-23T02:13:18.691Z,100530.55
2018-02-23T02:15:46.315Z,100522.23
2018-02-23T02:18:13.703Z,100523.41
2018-02-23T02:20:41.069Z,100521.50
2018-02-23T02:23:08.459Z,100519.45
2018-02-23T02:25:35.853Z,100521.10
2018-02-23T02:28:05.307Z,100519.16
2018-02-23T02:30:32.758Z,100514.80
2018-02-23T02:33:00.182Z,100515.27
2018-02-23T02:35:27.733Z,100513.58
2018-02-23T02:37:55.102Z,100512.34
2018-02-23T02:40:22.724Z,100511.45
2018-02-23T02:42:50.158Z,100516.89
2018-02-23T02:45:17.831Z,100513.98
2018-02-23T02:47:45.590Z,100512.75
2018-02-23T02:50:13.088Z,100512.13
2018-02-23T02:52:40.504Z,100504.97
2018-02-23T02:55:08.096Z,100506.22
2018-02-23T02:57:35.467Z,100512.64
2018-02-23T03:00:02.982Z,100503.16
2018-02-23T03:02:30.398Z,100498.82
2018-02-23T03:04:57.791Z,100499.13
2018-02-23T03:07:25.216Z,100496.89
2018-02-23T03:09:52.641Z,100500.09
2018-02-23T03:12:20.067Z,100487.64
2018-02-23T03:14:47.461Z,100488.41
2018-02-23T03:17:14.901Z,100477.71
2018-02-23T03:19:42.342Z,100479.54
2018-02-23T03:22:09.902Z,100476.83
2018-02-23T03:24:37.284Z,100470.89
2018-02-23T03:27:04.877Z,100477.91
2018-02-23T03:29:32.267Z,100483.44
2018-02-23T03:31:59.637Z,100477.80
2018-02-23T03:34:27.309Z,100473.92
2018-02-23T03:36:55.061Z,100481.88
2018-02-23T03:39:22.481Z,100482.20
2018-02-23T03:41:49.890Z,100481.22
2018-02-23T03:44:17.268Z,100473.72
2018-02-23T03:46:44.654Z,100479.29
2018-02-23T03:49:12.094Z,100487.30
2018-02-23T03:51:39.500Z,100480.81
2018-02-23T03:54:06.877Z,100487.06
2018-02-23T03:56:34.242Z,100487.52
2018-02-23T03:59:01.640Z,100483.00
2018-02-23T04:01:29.187Z,100493.05
2018-02-23T04:03:56.642Z,100490.02
2018-02-23T04:06:24.038Z,100490.85
2018-02-23T04:08:51.425Z,100491.71
2018-02-23T04:11:18.864Z,100500.22
2018-02-23T04:13:46.850Z,100491.00
2018-02-23T04:16:14.218Z,100491.91
2018-02-23T04:18:41.599Z,100486.61
2018-02-23T04:21:08.965Z,100486.86
2018-02-23T04:23:36.616Z,100491.44
2018-02-23T04:26:03.978Z,100488.77
2018-02-23T04:28:31.443Z,100491.17
2018-02-23T04:30:58.774Z,100494.80
2018-02-23T04:33:26.272Z,100493.53
2018-02-23T04:35:53.633Z,100506.44
2018-02-23T04:38:21.593Z,100499.25
2018-02-23T04:40:48.978Z,100502.88
2018-02-23T04:43:17.060Z,100502.33
2018-02-23T04:45:44.477Z,100498.41
2018-02-23T04:48:11.844Z,100505.80
2018-02-23T04:50:39.275Z,100507.43
2018-02-23T04:53:06.679Z,100507.84
2018-02-23T04:55:34.062Z,100510.52
2018-02-23T04:58:01.470Z,100510.07
2018-02-23T05:00:28.830Z,100511.81
2018-02-23T05:02:56.342Z,100510.77
2018-02-23T05:05:23.718Z,100508.64
2018-02-23T05:07:51.118Z,100512.03
2018-02-23T05:10:18.560Z,100505.52
2018-02-23T05:12:45.985Z,100507.81
2018-02-23T05:15:14.371Z,100509.36
2018-02-23T05:17:41.749Z,100510.27
2018-02-23T05:20:09.122Z,100504.16
2018-02-23T05:22:36.487Z,100503.55
2018-02-23T05:25:04.935Z,100508.91
2018-02-23T05:27:32.449Z,100508.78
2018-02-23T05:29:59.885Z,100504.94
2018-02-23T05:32:27.266Z,100507.92
2018-02-23T05:34:54.636Z,100496.62
2018-02-23T05:37:22.035Z,100495.83
2018-02-23T05:39:49.418Z,100497.41
2018-02-23T05:42:17.290Z,100498.02
2018-02-23T05:44:44.674Z,100495.84
2018-02-23T05:47:12.062Z,100491.28
2018-02-23T05:49:39.430Z,100496.88
2018-02-23T05:52:06.815Z,100492.25
2018-02-23T05:54:34.234Z,100491.33
2018-02-23T05:57:01.618Z,100490.55
2018-02-23T05:59:29.049Z,100499.72
2018-02-23T06:01:56.409Z,100490.02
2018-02-23T06:04:23.992Z,100498.88
2018-02-23T06:06:51.357Z,100492.83
2018-02-23T06:09:18.751Z,100497.84
2018-02-23T06:11:46.231Z,100498.55
2018-02-23T06:14:13.972Z,100500.63
2018-02-23T06:16:41.361Z,100504.91
2018-02-23T06:19:08.754Z,100502.13
2018-02-23T06:21:36.142Z,100517.42
2018-02-23T06:24:03.518Z,100520.16
2018-02-23T06:26:30.902Z,100510.27
2018-02-23T06:28:58.298Z,100517.95
2018-02-23T06:31:25.705Z,100519.15
2018-02-23T06:33:53.090Z,100524.53
2018-02-23T06:36:20.574Z,100529.50
2018-02-23T06:38:47.950Z,100526.14
2018-02-23T06:41:15.359Z,100531.77
2018-02-23T06:43:42.739Z,100523.11
2018-02-23T06:46:10.118Z,100524.61
2018-02-23T06:48:38.293Z,100530.58
2018-02-23T06:51:05.697Z,100528.22
2018-02-23T06:53:33.086Z,100531.94
2018-02-23T06:56:00.466Z,100530.73
2018-02-23T06:58:27.841Z,100537.44
2018-02-23T07:00:55.359Z,100538.39
2018-02-23T07:03:22.774Z,100542.91
2018-02-23T07:05:50.248Z,100551.06
2018-02-23T07:08:17.721Z,100546.00
2018-02-23T07:10:45.144Z,100552.84
2018-02-23T07:13:12.515Z,100553.98
2018-02-23T07:15:39.902Z,100558.67
2018-02-23T07:18:07.405Z,100548.67
2018-02-23T07:20:34.734Z,100548.33
2018-02-23T07:23:02.229Z,100553.45
2018-02-23T07:25:29.625Z,100551.71
2018-02-23T07:27:57.012Z,100554.61
2018-02-23T07:30:24.419Z,100543.45
2018-02-23T07:32:51.817Z,100544.03
2018-02-23T07:35:19.203Z,100540.47
2018-02-23T07:37:46.599Z,100539.13
2018-02-23T07:40:14.174Z,100539.41
2018-02-23T07:42:41.586Z,100542.86
2018-02-23T07:45:09.031Z,100542.94
2018-02-23T07:47:36.400Z,100542.69
2018-02-23T07:50:03.790Z,100544.92
2018-02-23T07:52:31.202Z,100543.32
2018-02-23T07:54:58.607Z,100546.48
2018-02-23T07:57:27.122Z,100552.97
2018-02-23T07:59:54.718Z,100554.38
2018-02-23T08:02:22.089Z,100549.70
2018-02-23T08:04:49.470Z,100549.62
2018-02-23T08:07:16.893Z,100555.81
2018-02-23T08:09:44.282Z,100548.23
2018-02-23T08:12:11.662Z,100558.33
2018-02-23T08:14:39.073Z,100554.66
2018-02-23T08:17:06.487Z,100553.23
2018-02-23T08:19:34.009Z,100551.38
2018-02-23T08:22:01.425Z,100550.23
2018-02-23T08:24:28.808Z,100548.94
2018-02-23T08:26:56.232Z,100551.34
2018-02-23T08:29:23.611Z,100555.29
2018-02-23T08:31:51.933Z,100552.74
2018-02-23T08:34:19.325Z,100552.86
2018-02-23T08:36:46.697Z,100549.81
2018-02-23T08:39:14.078Z,100547.53
2018-02-23T08:41:41.512Z,100545.15
2018-02-23T08:44:08.923Z,100548.78
2018-02-23T08:46:36.341Z,100552.19
2018-02-23T08:49:03.757Z,100555.00
2018-02-23T08:51:31.154Z,100560.02
2018-02-23T08:53:58.557Z,100556.98
2018-02-23T08:56:26.041Z,100555.64
2018-02-23T08:58:53.418Z,100557.30
2018-02-23T09:01:20.852Z,100555.75
2018-02-23T09:03:48.342Z,100554.88
2018-02-23T09:06:15.743Z,100559.00
2018-02-23T09:08:43.209Z,100556.05
2018-02-23T09:11:10.685Z,100556.27
2018-02-23T09:13:38.060Z,100561.35
2018-02-23T09:16:05.438Z,100564.22
2018-02-23T09:18:32.854Z,100558.58
2018-02-23T09:21:00.915Z,100567.38
2018-02-23T09:23:28.528Z,100567.61
2018-02-23T09:25:55.907Z,100570.86
2018-02-23T09:28:23.348Z,100570.95
2018-02-23T09:30:52.169Z,100566.45
2018-02-23T09:33:19.559Z,100556.16
2018-02-23T09:35:46.962Z,100573.27
2018-02-23T09:38:14.346Z,100564.99
2018-02-23T09:40:41.737Z,100567.37
2018-02-23T09:43:09.107Z,100566.10
2018-02-23T09:45:36.543Z,100555.41
2018-02-23T09:48:03.990Z,100567.34
2018-02-23T09:50:31.345Z,100572.14
2018-02-23T09:52:58.737Z,100572.53
2018-02-23T09:55:26.201Z,100574.83
2018-02-23T09:57:53.583Z,100573.03
2018-02-23T10:00:21.020Z,100573.81
2018-02-23T10:02:48.559Z,100575.86
2018-02-23T10:05:15.978Z,100578.12
2018-02-23T10:07:43.348Z,100573.31
2018-02-23T10:10:10.722Z,100577.85
2018-02-23T10:12:38.370Z,100575.92
2018-02-23T10:15:05.757Z,100566.56
2018-02-23T10:17:33.209Z,100562.62
2018-02-23T10:20:00.590Z,100560.25
2018-02-23T10:22:28.045Z,100573.39
2018-02-23T10:24:55.454Z,100565.22
2018-02-23T10:27:22.855Z,100574.16
2018-02-23T10:29:50.297Z,100574.97
2018-02-23T10:32:17.662Z,100561.97
2018-02-23T10:34:45.056Z,100566.08
2018-02-23T10:37:12.436Z,100563.66
2018-02-23T10:39:39.890Z,100564.67
2018-02-23T10:42:07.339Z,100567.99
2018-02-23T10:44:34.724Z,100563.20
2018-02-23T10:47:02.155Z,100559.34
2018-02-23T10:49:33.724Z,100556.47
2018-02-23T10:52:02.307Z,100560.45
2018-02-23T10:54:29.745Z,100555.75
2018-02-23T10:56:57.085Z,100553.27
2018-02-23T10:59:24.464Z,100549.50
2018-02-23T11:01:51.861Z,100558.52
2018-02-23T11:04:19.249Z,100558.92
2018-02-23T11:06:46.654Z,100556.16
2018-02-23T11:09:14.078Z,100553.59
2018-02-23T11:11:41.457Z,100538.55
2018-02-23T11:14:08.872Z,100551.61
2018-02-23T11:16:36.328Z,100543.53
2018-02-23T11:19:03.726Z,100546.73
2018-02-23T11:21:31.115Z,100542.88
2018-02-23T11:23:58.515Z,100537.56
2018-02-23T11:26:25.899Z,100537.75
2018-02-23T11:28:53.315Z,100541.06
2018-02-23T11:31:20.714Z,100534.23
2018-02-23T11:33:49.012Z,100524.36
2018-02-23T11:36:16.538Z,100519.83
2018-02-23T11:38:43.911Z,100517.70
2018-02-23T11:41:11.282Z,100514.11
2018-02-23T11:43:38.666Z,100504.80
2018-02-23T11:46:06.079Z,100500.77
2018-02-23T11:48:33.461Z,100498.84
2018-02-23T11:51:00.868Z,100487.24
2018-02-23T11:53:28.292Z,100490.08
2018-02-23T11:55:55.705Z,100491.15
2018-02-23T11:58:23.070Z,100497.45
2018-02-23T12:00:50.495Z,100490.52
2018-02-23T12:03:17.858Z,100490.23
2018-02-23T12:05:45.233Z,100486.62
2018-02-23T12:08:12.752Z,100479.48
2018-02-23T12:10:40.195Z,100482.61
2018-02-23T12:13:07.764Z,100477.98
2018-02-23T12:15:35.225Z,100473.58
2018-02-23T12:18:02.701Z,100462.79
2018-02-23T12:20:30.107Z,100454.63
2018-02-23T12:22:57.490Z,100453.63
2018-02-23T12:25:27.424Z,100454.78
2018-02-23T12:27:56.058Z,100459.09
2018-02-23T12:30:23.580Z,100459.19
2018-02-23T12:32:51.090Z,100463.41
2018-02-23T12:35:20.315Z,100444.67
2018-02-23T12:37:47.766Z,100447.25
2018-02-23T12:40:15.632Z,100439.70
2018-02-23T12:42:43.134Z,100433.59
2018-02-23T12:45:10.536Z,100422.82
2018-02-23T12:47:37.983Z,100416.41
2018-02-23T12:50:06.106Z,100405.95
2018-02-23T12:52:33.496Z,100405.63
2018-02-23T12:55:00.908Z,100406.05
2018-02-23T12:57:28.395Z,100393.47
2018-02-23T12:59:55.834Z,100393.00
2018-02-23T13:02:23.265Z,100396.72
2018-02-23T13:04:50.904Z,100389.80
2018-02-23T13:07:19.429Z,100392.22
2018-02-23T13:09:46.908Z,100384.27
2018-02-23T13:12:14.521Z,100384.16
2018-02-23T13:14:48.075Z,100380.67
2018-02-23T13:17:15.448Z,100368.52
2018-02-23T13:19:42.831Z,100368.70
2018-02-23T13:22:10.692Z,100366.98
2018-02-23T13:24:38.142Z,100353.93
2018-02-23T13:27:11.055Z,100343.88
2018-02-23T13:29:38.481Z,100347.61
2018-02-23T13:32:05.867Z,100348.38
2018-02-23T13:34:33.266Z,100353.52
2018-02-23T13:37:00.677Z,100353.56
2018-02-23T13:39:28.283Z,100353.95
2018-02-23T13:41:55.830Z,100348.72
2018-02-23T13:44:23.404Z,100339.75
2018-02-23T13:46:52.679Z,100329.77
2018-02-23T13:49:20.213Z,100318.52
2018-02-23T13:51:50.163Z,100325.42
2018-02-23T13:54:27.263Z,100317.11
2018-02-23T13:56:54.634Z,100332.05
2018-02-23T13:59:22.057Z,100333.64
2018-02-23T14:01:49.754Z,100325.23
2018-02-23T14:04:17.127Z,100336.03
2018-02-23T14:06:48.473Z,100341.78
2018-02-23T14:09:16.069Z,100331.00
2018-02-23T14:11:43.450Z,100339.55
2018-02-23T14:14:10.843Z,100338.97
2018-02-23T14:16:39.583Z,100337.36
2018-02-23T14:19:06.965Z,100334.66
2018-02-23T14:21:35.010Z,100332.01
2018-02-23T14:24:02.410Z,100336.56
2018-02-23T14:26:29.850Z,100326.84
2018-02-23T14:28:57.478Z,100320.05
2018-02-23T14:31:24.883Z,100331.25
2018-02-23T14:33:52.269Z,100325.82
2018-02-23T14:36:20.210Z,100327.56
2018-02-23T14:38:47.609Z,100329.61
2018-02-23T14:41:14.992Z,100328.05
2018-02-23T14:43:43.574Z,100328.81
2018-02-23T14:46:10.971Z,100329.29
2018-02-23T14:51:45.045Z,100328.24
2018-02-23T14:54:22.811Z,100318.93
2018-02-23T14:56:53.871Z,100318.27
2018-02-23T14:59:21.461Z,100319.84
2018-02-23T15:01:50.074Z,100333.92
2018-02-23T15:04:17.446Z,100333.43
2018-02-23T15:06:45.505Z,100329.06
2018-02-23T15:09:12.897Z,100326.38
2018-02-23T15:11:40.306Z,100324.45
2018-02-23T15:14:07.898Z,100330.58
2018-02-23T15:16:35.323Z,100337.07
2018-02-23T15:19:02.891Z,100343.08
2018-02-23T15:21:30.281Z,100344.80
2018-02-23T15:23:57.708Z,100354.26
2018-02-23T15:26:25.090Z,100344.00
2018-02-23T15:28:52.723Z,100353.13
2018-02-23T15:31:32.123Z,100352.30
2018-02-23T15:33:59.501Z,100349.55
2018-02-23T15:36:27.076Z,100341.14
2018-02-23T15:38:54.635Z,100349.80
2018-02-23T15:41:22.034Z,100345.73
2018-02-23T15:43:50.237Z,100353.64
2018-02-23T15:46:17.650Z,100348.00
2018-02-23T15:48:46.567Z,100342.54
2018-02-23T15:51:14.293Z,100348.45
2018-02-23T15:53:41.723Z,100353.04
2018-02-23T15:56:09.114Z,100356.80
2018-02-23T15:58:37.484Z,100359.52
2018-02-23T16:01:05.492Z,100355.83
2018-02-23T16:03:32.899Z,100356.95
2018-02-23T16:06:00.275Z,100372.33
2018-02-23T16:08:27.689Z,100367.14
2018-02-23T16:10:55.106Z,100372.59
2018-02-23T16:13:22.506Z,100374.23
2018-02-23T16:15:50.641Z,100375.80
2018-02-23T16:18:18.054Z,100380.75
2018-02-23T16:20:46.629Z,100384.62
2018-02-23T16:23:15.010Z,100388.65
2018-02-23T16:25:42.442Z,100393.45
2018-02-23T16:28:13.630Z,100389.08
2018-02-23T16:30:49.285Z,100392.75
2018-02-23T16:33:17.008Z,100392.13
2018-02-23T16:35:44.437Z,100389.30
2018-02-23T16:38:11.916Z,100395.56
2018-02-23T16:40:39.285Z,100392.41
2018-02-23T16:43:06.974Z,100390.39
2018-02-23T16:45:34.374Z,100388.53
2018-02-23T16:48:01.874Z,100379.45
2018-02-23T16:50:29.555Z,100381.38
2018-02-23T16:52:56.986Z,100375.58
2018-02-23T16:55:24.418Z,100367.81
2018-02-23T16:57:51.808Z,100376.48
2018-02-23T17:00:19.241Z,100379.17
2018-02-23T17:02:46.562Z,100386.44
2018-02-23T17:05:13.960Z,100380.64
2018-02-23T17:07:41.342Z,100388.28
2018-02-23T17:10:08.805Z,100393.69
2018-02-23T17:12:36.281Z,100391.75
2018-02-23T17:15:03.665Z,100398.05
2018-02-23T17:17:31.063Z,100400.89
2018-02-23T17:19:58.486Z,100412.69
2018-02-23T17:22:25.868Z,100406.59
2018-02-23T17:24:54.754Z,100416.02
2018-02-23T17:27:22.151Z,100409.33
2018-02-23T17:29:49.550Z,100416.48
2018-02-23T17:32:16.990Z,100414.27
2018-02-23T17:34:44.717Z,100419.92
2018-02-23T17:37:12.177Z,100425.45
2018-02-23T17:39:39.587Z,100432.88
2018-02-23T17:42:06.971Z,100430.53
2018-02-23T17:44:34.379Z,100438.64
2018-02-23T17:47:03.056Z,100444.13
2018-02-23T17:49:30.698Z,100452.88
2018-02-23T17:51:58.092Z,100459.42
2018-02-23T17:54:25.476Z,100467.98
2018-02-23T17:56:52.930Z,100475.76
2018-02-23T17:59:20.342Z,100473.88
2018-02-23T18:01:47.726Z,100472.64
2018-02-23T18:04:15.108Z,100478.80
2018-02-23T18:06:42.505Z,100473.77
2018-02-23T18:09:10.049Z,100481.03
2018-02-23T18:11:37.578Z,100479.19
2018-02-23T18:14:04.984Z,100480.31
2018-02-23T18:16:34.453Z,100477.41
2018-02-23T18:19:02.263Z,100476.33
2018-02-23T18:21:31.480Z,100473.77
2018-02-23T18:23:58.922Z,100481.64
2018-02-23T18:26:26.279Z,100477.66
2018-02-23T18:28:53.706Z,100485.29
2018-02-23T18:31:21.096Z,100496.25
2018-02-23T18:33:48.549Z,100490.92
2018-02-23T18:36:16.171Z,100491.16
2018-02-23T18:38:43.554Z,100489.95
2018-02-23T18:41:10.945Z,100493.55
2018-02-23T18:43:38.513Z,100502.61
2018-02-23T18:46:08.460Z,100499.78
2018-02-23T18:48:35.870Z,100504.87
2018-02-23T18:51:03.311Z,100506.61
2018-02-23T18:53:31.133Z,100507.52
2018-02-23T18:55:58.515Z,100502.98
2018-02-23T18:58:26.136Z,100510.06
2018-02-23T19:00:53.513Z,100513.45
2018-02-23T19:03:22.774Z,100519.20
2018-02-23T19:05:50.149Z,100518.24
2018-02-23T19:08:18.186Z,100519.92
2018-02-23T19:10:45.612Z,100516.38
2018-02-23T19:13:13.101Z,100520.91
2018-02-23T19:15:40.501Z,100514.70
2018-02-23T19:18:07.969Z,100517.01
2018-02-23T19:20:35.370Z,100517.24
2018-02-23T19:23:02.754Z,100521.67
2018-02-23T19:25:30.620Z,100517.57
2018-02-23T19:27:58.064Z,100513.33
2018-02-23T19:30:25.454Z,100516.22
2018-02-23T19:32:52.839Z,100516.45
2018-02-23T19:35:20.232Z,100510.30
2018-02-23T19:37:48.102Z,100526.99
2018-02-23T19:40:15.777Z,100530.50
2018-02-23T19:42:43.359Z,100533.09
2018-02-23T19:45:10.855Z,100531.34
2018-02-23T19:47:38.234Z,100542.84
2018-02-23T19:50:05.656Z,100542.20
2018-02-23T19:52:33.123Z,100540.02
2018-02-23T19:55:00.709Z,100541.96
2018-02-23T19:57:28.117Z,100538.18
2018-02-23T19:59:55.506Z,100544.20
2018-02-23T20:02:23.846Z,100546.59
2018-02-23T20:04:51.768Z,100548.82
2018-02-23T20:07:20.070Z,100549.45
2018-02-23T20:09:47.509Z,100550.13
2018-02-23T20:12:14.909Z,100547.47
2018-02-23T20:14:42.299Z,100545.73
2018-02-23T20:17:09.808Z,100547.27
2018-02-23T20:19:37.185Z,100550.67
2018-02-23T20:22:05.696Z,100548.92
2018-02-23T20:24:33.066Z,100547.19
2018-02-23T20:27:00.456Z,100551.80
2018-02-23T20:29:27.874Z,100548.62
2018-02-23T20:31:55.320Z,100549.27
2018-02-23T20:34:22.713Z,100550.38
2018-02-23T20:36:51.316Z,100549.67
2018-02-23T20:39:18.687Z,100547.23
2018-02-23T20:41:46.061Z,100547.16
2018-02-23T20:44:13.461Z,100549.39
2018-02-23T20:46:40.891Z,100553.19
2018-02-23T20:49:08.336Z,100551.03
2018-02-23T20:51:35.814Z,100550.62
2018-02-23T20:54:03.486Z,100543.30
2018-02-23T20:56:31.208Z,100557.12
2018-02-23T20:58:58.578Z,100559.76
2018-02-23T21:01:25.995Z,100555.69
2018-02-23T21:03:53.366Z,100567.58
2018-02-23T21:06:21.215Z,100555.84
2018-02-23T21:08:49.379Z,100558.48
2018-02-23T21:11:16.764Z,100565.78
2018-02-23T21:13:44.158Z,100561.39
2018-02-23T21:16:11.704Z,100561.14
2018-02-23T21:18:39.492Z,100564.91
2018-02-23T21:21:07.614Z,100572.81
2018-02-23T21:23:34.987Z,100573.07
2018-02-23T21:26:02.450Z,100579.66
2018-02-23T21:28:29.844Z,100576.85
2018-02-23T21:30:57.240Z,100577.33
2018-02-23T21:33:24.947Z,100581.16
2018-02-23T21:35:52.492Z,100581.88
2018-02-23T21:38:21.703Z,100588.70
2018-02-23T21:40:49.135Z,100591.38
2018-02-23T21:43:17.585Z,100599.00
2018-02-23T21:45:44.990Z,100592.78
2018-02-23T21:48:12.769Z,100596.20
2018-02-23T21:50:41.366Z,100591.48
2018-02-23T21:53:08.756Z,100585.45
2018-02-23T21:55:37.459Z,100592.38
2018-02-23T21:58:05.466Z,100595.02
2018-02-23T22:00:32.920Z,100592.00
2018-02-23T22:03:00.539Z,100595.72
2018-02-23T22:05:32.011Z,100594.07
2018-02-23T22:07:59.918Z,100593.86
2018-02-23T22:10:27.319Z,100596.36
2018-02-23T22:12:54.707Z,100589.73
2018-02-23T22:15:22.169Z,100598.94
2018-02-23T22:17:49.538Z,100598.20
2018-02-23T22:20:18.007Z,100585.58
2018-02-23T22:22:45.626Z,100588.03
2018-02-23T22:25:13.006Z,100586.84
2018-02-23T22:27:40.391Z,100599.80
2018-02-23T22:30:07.779Z,100598.73
2018-02-23T22:32:37.378Z,100601.90
2018-02-23T22:35:04.758Z,100612.81
2018-02-23T22:37:32.175Z,100613.04
2018-02-23T22:40:00.742Z,100623.80
2018-02-23T22:42:28.717Z,100630.14
2018-02-23T22:44:56.200Z,100629.78
2018-02-23T22:47:23.609Z,100629.92
2018-02-23T22:49:51.377Z,100622.76
2018-02-23T22:52:19.018Z,100624.20
2018-02-23T22:54:46.538Z,100638.82
2018-02-23T22:57:13.983Z,100626.45
2018-02-23T22:59:41.458Z,100639.44
2018-02-23T23:02:09.163Z,100635.98
2018-02-23T23:04:36.623Z,100636.19
2018-02-23T23:07:20.261Z,100636.62
2018-02-23T23:09:47.679Z,100643.77
2018-02-23T23:12:15.079Z,100642.14
2018-02-23T23:14:44.158Z,100635.98
2018-02-23T23:17:12.589Z,100644.08
2018-02-23T23:19:39.975Z,100636.38
2018-02-23T23:22:07.352Z,100632.60
2018-02-23T23:24:34.783Z,100627.98
2018-02-23T23:27:02.175Z,100623.22
2018-02-23T23:29:30.376Z,100621.60
2018-02-23T23:31:58.867Z,100617.37
2018-02-23T23:34:26.246Z,100628.94
2018-02-23T23:36:53.638Z,100630.34
2018-02-23T23:39:21.026Z,100630.20
2018-02-23T23:41:48.431Z,100623.46
2018-02-23T23:44:15.814Z,100633.48
2018-02-23T23:46:43.237Z,100632.25
2018-02-23T23:49:10.617Z,100633.70
2018-02-23T23:51:38.026Z,100631.41
2018-02-23T23:54:05.393Z,100626.91
2018-02-23T23:56:33.265Z,100631.60
2018-02-23T23:59:01.949Z,100620.58
